Venus, Texas
Current Conditions -  °F | °C
As of 4:35 PM on Monday 24 Nov 2014 (Local Time) from KJWY Reporting Station
Clear Clear  
Wind Chill: 57°   Ceiling: Unl
Heat Index: 57°   Visibility: 10mi
Dew Point: 27°   Wind: 3mph
Humidity: 31%   Direction: 310°NW
Pressure: 30.07"   Gusts: NA
Location:  32.43°N, 97.1°W
Report Text: KJWY 242235Z AUTO 31003KT 10SM CLR 14/M03 A3007 RMK AO2 T01411028
Loading
Personal Weather Stations






























Interactive Weather Map New forecast layout! Learn more

10-Day Weather Forecast

Advertisements
Track Severe Weather on mobile